sensor_id;sensor_type;location;lat;lon;timestamp;pressure;altitude;pressure_sealevel;temperature;humidity
43621;BME280;29213;50.770;7.298;2023-05-21T00:00:58;100828.41;;;11.12;59.46
43621;BME280;29213;50.770;7.298;2023-05-21T00:03:25;100917.25;;;11.72;59.39
43621;BME280;29213;50.770;7.298;2023-05-21T00:05:52;100909.41;;;11.70;59.63
43621;BME280;29213;50.770;7.298;2023-05-21T00:08:19;100916.59;;;11.70;59.73
43621;BME280;29213;50.770;7.298;2023-05-21T00:10:45;100866.19;;;11.42;59.78
43621;BME280;29213;50.770;7.298;2023-05-21T00:13:10;100903.25;;;11.70;59.85
43621;BME280;29213;50.770;7.298;2023-05-21T00:15:36;100846.31;;;11.28;59.89
43621;BME280;29213;50.770;7.298;2023-05-21T00:18:02;100676.63;;;10.34;59.79
43621;BME280;29213;50.770;7.298;2023-05-21T00:20:27;100802.75;;;11.02;59.87
43621;BME280;29213;50.770;7.298;2023-05-21T00:22:59;100896.41;;;11.67;59.72
43621;BME280;29213;50.770;7.298;2023-05-21T00:25:27;100776.06;;;10.94;59.58
43621;BME280;29213;50.770;7.298;2023-05-21T00:27:53;100822.78;;;11.15;59.99
43621;BME280;29213;50.770;7.298;2023-05-21T00:30:18;100891.38;;;11.64;59.93
43621;BME280;29213;50.770;7.298;2023-05-21T00:32:44;100773.56;;;10.92;59.80
43621;BME280;29213;50.770;7.298;2023-05-21T00:35:09;100843.31;;;11.31;60.10
43621;BME280;29213;50.770;7.298;2023-05-21T00:37:35;100822.47;;;11.18;59.85
43621;BME280;29213;50.770;7.298;2023-05-21T00:40:00;100800.78;;;11.13;59.96
43621;BME280;29213;50.770;7.298;2023-05-21T00:42:26;100793.75;;;11.03;60.05
43621;BME280;29213;50.770;7.298;2023-05-21T00:44:55;100764.38;;;10.87;60.23
43621;BME280;29213;50.770;7.298;2023-05-21T00:47:21;100745.03;;;10.76;60.06
43621;BME280;29213;50.770;7.298;2023-05-21T00:49:47;100795.75;;;11.09;60.33
43621;BME280;29213;50.770;7.298;2023-05-21T00:52:14;100724.13;;;10.63;60.36
43621;BME280;29213;50.770;7.298;2023-05-21T00:54:48;100834.84;;;11.35;60.38
43621;BME280;29213;50.770;7.298;2023-05-21T00:57:16;100825.97;;;11.27;60.57
43621;BME280;29213;50.770;7.298;2023-05-21T00:59:46;100869.84;;;11.49;60.50
43621;BME280;29213;50.770;7.298;2023-05-21T01:02:11;100802.75;;;11.02;60.34
43621;BME280;29213;50.770;7.298;2023-05-21T01:04:38;100867.69;;;11.44;60.53
43621;BME280;29213;50.770;7.298;2023-05-21T01:07:04;100782.72;;;10.90;60.48
43621;BME280;29213;50.770;7.298;2023-05-21T01:09:30;100851.63;;;11.28;60.59
43621;BME280;29213;50.770;7.298;2023-05-21T01:11:56;100687.72;;;10.29;60.61
43621;BME280;29213;50.770;7.298;2023-05-21T01:14:22;100774.53;;;10.83;60.55
43621;BME280;29213;50.770;7.298;2023-05-21T01:16:49;100856.16;;;11.35;60.85
43621;BME280;29213;50.770;7.298;2023-05-21T01:19:17;100871.47;;;11.33;60.67
43621;BME280;29213;50.770;7.298;2023-05-21T01:21:45;100858.47;;;11.30;60.70
43621;BME280;29213;50.770;7.298;2023-05-21T01:24:11;100739.94;;;10.56;60.79
43621;BME280;29213;50.770;7.298;2023-05-21T01:26:36;100721.03;;;10.33;60.63
43621;BME280;29213;50.770;7.298;2023-05-21T01:29:06;100813.22;;;10.95;60.74
43621;BME280;29213;50.770;7.298;2023-05-21T01:34:19;100774.28;;;10.68;60.74
43621;BME280;29213;50.770;7.298;2023-05-21T01:36:54;100791.31;;;10.75;60.76
43621;BME280;29213;50.770;7.298;2023-05-21T01:39:32;100855.25;;;11.18;60.81
43621;BME280;29213;50.770;7.298;2023-05-21T01:41:59;100718.31;;;10.25;60.87
43621;BME280;29213;50.770;7.298;2023-05-21T01:44:27;100800.28;;;10.74;61.13
43621;BME280;29213;50.770;7.298;2023-05-21T01:46:53;100855.75;;;11.14;60.90
43621;BME280;29213;50.770;7.298;2023-05-21T01:49:20;100773.22;;;10.61;61.03
43621;BME280;29213;50.770;7.298;2023-05-21T01:51:47;100863.06;;;11.12;61.26
43621;BME280;29213;50.770;7.298;2023-05-21T01:54:13;100805.59;;;10.74;61.09
43621;BME280;29213;50.770;7.298;2023-05-21T01:56:38;100806.75;;;10.72;61.15
43621;BME280;29213;50.770;7.298;2023-05-21T01:59:04;100703.94;;;10.09;61.39
43621;BME280;29213;50.770;7.298;2023-05-21T02:01:29;100806.56;;;10.65;61.34
43621;BME280;29213;50.770;7.298;2023-05-21T02:03:55;100646.53;;;9.72;61.23
43621;BME280;29213;50.770;7.298;2023-05-21T02:06:21;100785.88;;;10.59;61.25
43621;BME280;29213;50.770;7.298;2023-05-21T02:08:47;100831.16;;;10.85;61.31
43621;BME280;29213;50.770;7.298;2023-05-21T02:11:13;100849.50;;;10.96;61.49
43621;BME280;29213;50.770;7.298;2023-05-21T02:13:38;100794.22;;;10.64;61.35
43621;BME280;29213;50.770;7.298;2023-05-21T02:16:10;100545.72;;;9.07;61.38
43621;BME280;29213;50.770;7.298;2023-05-21T02:18:39;100844.38;;;10.95;61.64
43621;BME280;29213;50.770;7.298;2023-05-21T02:21:06;100815.28;;;10.75;61.47
43621;BME280;29213;50.770;7.298;2023-05-21T02:23:31;100759.47;;;10.39;61.48
43621;BME280;29213;50.770;7.298;2023-05-21T02:25:57;100841.84;;;10.93;61.65
43621;BME280;29213;50.770;7.298;2023-05-21T02:28:22;100814.53;;;10.65;61.25
43621;BME280;29213;50.770;7.298;2023-05-21T02:30:48;100812.47;;;10.77;61.50
43621;BME280;29213;50.770;7.298;2023-05-21T02:33:15;100800.19;;;10.57;61.54
43621;BME280;29213;50.770;7.298;2023-05-21T02:35:40;100836.00;;;10.90;61.74
43621;BME280;29213;50.770;7.298;2023-05-21T02:38:06;100817.56;;;10.70;61.86
43621;BME280;29213;50.770;7.298;2023-05-21T02:40:33;100730.38;;;10.11;61.65
43621;BME280;29213;50.770;7.298;2023-05-21T02:42:59;100844.31;;;10.87;61.90
43621;BME280;29213;50.770;7.298;2023-05-21T02:45:24;100741.22;;;10.18;61.87
43621;BME280;29213;50.770;7.298;2023-05-21T02:47:50;100839.84;;;10.87;61.77
43621;BME280;29213;50.770;7.298;2023-05-21T02:50:15;100838.13;;;10.86;61.79
43621;BME280;29213;50.770;7.298;2023-05-21T02:52:40;100758.66;;;10.38;61.86
43621;BME280;29213;50.770;7.298;2023-05-21T02:55:06;100741.59;;;10.23;61.77
43621;BME280;29213;50.770;7.298;2023-05-21T02:57:32;100791.84;;;10.52;61.67
43621;BME280;29213;50.770;7.298;2023-05-21T02:59:57;100797.84;;;10.54;61.73
43621;BME280;29213;50.770;7.298;2023-05-21T03:02:23;100770.97;;;10.39;61.84
43621;BME280;29213;50.770;7.298;2023-05-21T03:04:48;100798.53;;;10.56;61.75
43621;BME280;29213;50.770;7.298;2023-05-21T03:07:15;100788.75;;;10.39;61.99
43621;BME280;29213;50.770;7.298;2023-05-21T03:09:44;100763.63;;;10.33;62.17
43621;BME280;29213;50.770;7.298;2023-05-21T03:12:10;100758.44;;;10.32;61.93
43621;BME280;29213;50.770;7.298;2023-05-21T03:14:36;100814.53;;;10.65;62.09
43621;BME280;29213;50.770;7.298;2023-05-21T03:17:02;100823.94;;;10.77;62.09
43621;BME280;29213;50.770;7.298;2023-05-21T03:19:33;100753.97;;;10.32;62.21
43621;BME280;29213;50.770;7.298;2023-05-21T03:22:00;100758.44;;;10.32;62.25
43621;BME280;29213;50.770;7.298;2023-05-21T03:24:27;100774.50;;;10.48;62.33
43621;BME280;29213;50.770;7.298;2023-05-21T03:26:54;100773.84;;;10.46;62.17
43621;BME280;29213;50.770;7.298;2023-05-21T03:29:19;100696.91;;;10.00;62.12
43621;BME280;29213;50.770;7.298;2023-05-21T03:31:46;100722.09;;;10.14;62.25
43621;BME280;29213;50.770;7.298;2023-05-21T03:34:11;100711.41;;;10.06;62.38
43621;BME280;29213;50.770;7.298;2023-05-21T03:36:36;100721.41;;;10.12;62.25
43621;BME280;29213;50.770;7.298;2023-05-21T03:39:02;100820.06;;;10.72;62.21
43621;BME280;29213;50.770;7.298;2023-05-21T03:41:28;100718.56;;;10.13;62.39
43621;BME280;29213;50.770;7.298;2023-05-21T03:43:54;100761.47;;;10.37;62.45
43621;BME280;29213;50.770;7.298;2023-05-21T03:46:19;100735.75;;;10.19;62.29
43621;BME280;29213;50.770;7.298;2023-05-21T03:48:45;100757.41;;;10.24;62.59
43621;BME280;29213;50.770;7.298;2023-05-21T03:51:10;100728.91;;;10.16;62.53
43621;BME280;29213;50.770;7.298;2023-05-21T03:53:37;100813.75;;;10.73;62.44
43621;BME280;29213;50.770;7.298;2023-05-21T03:56:02;100727.91;;;10.09;62.76
43621;BME280;29213;50.770;7.298;2023-05-21T03:58:29;100732.25;;;10.19;62.58
43621;BME280;29213;50.770;7.298;2023-05-21T04:00:54;100758.81;;;10.37;62.65
43621;BME280;29213;50.770;7.298;2023-05-21T04:03:20;100769.53;;;10.45;62.60
43621;BME280;29213;50.770;7.298;2023-05-21T04:05:45;100670.66;;;9.79;62.50
43621;BME280;29213;50.770;7.298;2023-05-21T04:08:11;100813.47;;;10.76;62.67
43621;BME280;29213;50.770;7.298;2023-05-21T04:10:36;100795.06;;;10.64;62.62
43621;BME280;29213;50.770;7.298;2023-05-21T04:13:01;100747.78;;;10.32;62.77
43621;BME280;29213;50.770;7.298;2023-05-21T04:15:27;100742.63;;;10.30;62.78
43621;BME280;29213;50.770;7.298;2023-05-21T04:17:52;100763.34;;;10.45;62.88
43621;BME280;29213;50.770;7.298;2023-05-21T04:20:19;100793.03;;;10.58;62.68
43621;BME280;29213;50.770;7.298;2023-05-21T04:22:44;100727.09;;;10.17;62.99
43621;BME280;29213;50.770;7.298;2023-05-21T04:25:09;100640.78;;;9.58;62.69
43621;BME280;29213;50.770;7.298;2023-05-21T04:27:38;100755.63;;;10.33;62.89
43621;BME280;29213;50.770;7.298;2023-05-21T04:30:04;100820.75;;;10.74;62.89
43621;BME280;29213;50.770;7.298;2023-05-21T04:32:30;100803.22;;;10.63;62.87
43621;BME280;29213;50.770;7.298;2023-05-21T04:34:57;100773.84;;;10.46;62.83
43621;BME280;29213;50.770;7.298;2023-05-21T04:37:28;100772.34;;;10.43;62.80
43621;BME280;29213;50.770;7.298;2023-05-21T04:39:56;100797.47;;;10.49;62.87
43621;BME280;29213;50.770;7.298;2023-05-21T04:42:22;100738.94;;;10.23;62.98
43621;BME280;29213;50.770;7.298;2023-05-21T04:44:48;100829.28;;;10.77;63.06
43621;BME280;29213;50.770;7.298;2023-05-21T04:47:15;100788.53;;;10.50;63.19
43621;BME280;29213;50.770;7.298;2023-05-21T04:49:42;100835.31;;;10.79;63.13
43621;BME280;29213;50.770;7.298;2023-05-21T04:52:08;100768.66;;;10.45;63.18
43621;BME280;29213;50.770;7.298;2023-05-21T04:54:33;100799.34;;;10.57;63.34
43621;BME280;29213;50.770;7.298;2023-05-21T04:57:00;100734.75;;;10.20;63.33
43621;BME280;29213;50.770;7.298;2023-05-21T04:59:27;100754.13;;;10.30;63.39
43621;BME280;29213;50.770;7.298;2023-05-21T05:01:52;100847.81;;;10.87;62.98
43621;BME280;29213;50.770;7.298;2023-05-21T05:04:17;100819.78;;;10.75;63.22
43621;BME280;29213;50.770;7.298;2023-05-21T05:06:43;100740.28;;;10.27;63.35
43621;BME280;29213;50.770;7.298;2023-05-21T05:09:08;100680.72;;;9.93;63.32
43621;BME280;29213;50.770;7.298;2023-05-21T05:11:34;100745.84;;;10.34;63.39
43621;BME280;29213;50.770;7.298;2023-05-21T05:13:59;100791.78;;;10.70;63.37
43621;BME280;29213;50.770;7.298;2023-05-21T05:16:25;100769.91;;;10.59;63.43
43621;BME280;29213;50.770;7.298;2023-05-21T05:18:51;100834.03;;;11.00;63.33
43621;BME280;29213;50.770;7.298;2023-05-21T05:21:17;100761.19;;;10.48;63.65
43621;BME280;29213;50.770;7.298;2023-05-21T05:23:42;100769.59;;;10.62;63.58
43621;BME280;29213;50.770;7.298;2023-05-21T05:26:07;100763.06;;;10.56;63.42
43621;BME280;29213;50.770;7.298;2023-05-21T05:28:33;100777.09;;;10.66;63.47
43621;BME280;29213;50.770;7.298;2023-05-21T05:30:58;100605.41;;;9.66;63.22
43621;BME280;29213;50.770;7.298;2023-05-21T05:33:24;100800.91;;;11.03;63.46
43621;BME280;29213;50.770;7.298;2023-05-21T05:35:49;100799.94;;;11.04;63.19
43621;BME280;29213;50.770;7.298;2023-05-21T05:38:14;100772.69;;;10.83;63.51
43621;BME280;29213;50.770;7.298;2023-05-21T05:40:41;100783.91;;;10.95;63.46
43621;BME280;29213;50.770;7.298;2023-05-21T05:43:06;100731.47;;;10.69;63.41
43621;BME280;29213;50.770;7.298;2023-05-21T05:45:31;100654.59;;;10.23;63.69
43621;BME280;29213;50.770;7.298;2023-05-21T05:47:57;100821.31;;;11.20;63.88
43621;BME280;29213;50.770;7.298;2023-05-21T05:50:22;100769.75;;;10.95;63.69
43621;BME280;29213;50.770;7.298;2023-05-21T05:52:47;100697.34;;;10.56;63.72
43621;BME280;29213;50.770;7.298;2023-05-21T05:55:14;100758.91;;;10.96;63.92
43621;BME280;29213;50.770;7.298;2023-05-21T05:57:39;100703.03;;;10.70;63.81
43621;BME280;29213;50.770;7.298;2023-05-21T06:00:05;100808.00;;;11.37;63.20
43621;BME280;29213;50.770;7.298;2023-05-21T06:02:31;100828.03;;;11.58;63.59
43621;BME280;29213;50.770;7.298;2023-05-21T06:04:56;100722.59;;;10.95;63.63
43621;BME280;29213;50.770;7.298;2023-05-21T06:07:22;100737.78;;;11.12;63.67
43621;BME280;29213;50.770;7.298;2023-05-21T06:09:48;100736.63;;;11.06;63.50
43621;BME280;29213;50.770;7.298;2023-05-21T06:12:13;100835.03;;;11.75;63.69
43621;BME280;29213;50.770;7.298;2023-05-21T06:14:41;100840.91;;;11.79;63.95
43621;BME280;29213;50.770;7.298;2023-05-21T06:17:06;100797.69;;;11.59;63.83
43621;BME280;29213;50.770;7.298;2023-05-21T06:19:31;100697.31;;;11.00;64.13
43621;BME280;29213;50.770;7.298;2023-05-21T06:21:57;100754.66;;;11.45;63.79
43621;BME280;29213;50.770;7.298;2023-05-21T06:24:22;100765.34;;;11.54;63.06
43621;BME280;29213;50.770;7.298;2023-05-21T06:26:48;100764.34;;;11.63;62.59
43621;BME280;29213;50.770;7.298;2023-05-21T06:29:13;100730.00;;;11.52;63.05
43621;BME280;29213;50.770;7.298;2023-05-21T06:31:38;100747.00;;;11.67;62.64
43621;BME280;29213;50.770;7.298;2023-05-21T06:34:04;100808.56;;;12.15;62.38
43621;BME280;29213;50.770;7.298;2023-05-21T06:36:29;100836.56;;;12.36;62.08
43621;BME280;29213;50.770;7.298;2023-05-21T06:38:56;100803.22;;;12.24;62.11
43621;BME280;29213;50.770;7.298;2023-05-21T06:41:22;100833.88;;;12.53;61.89
43621;BME280;29213;50.770;7.298;2023-05-21T06:43:47;100821.16;;;12.55;62.02
43621;BME280;29213;50.770;7.298;2023-05-21T06:46:12;100828.97;;;12.73;61.70
43621;BME280;29213;50.770;7.298;2023-05-21T06:48:38;100794.44;;;12.55;61.72
43621;BME280;29213;50.770;7.298;2023-05-21T06:51:03;100826.69;;;12.93;61.71
43621;BME280;29213;50.770;7.298;2023-05-21T06:53:29;100829.53;;;13.00;60.99
43621;BME280;29213;50.770;7.298;2023-05-21T06:55:54;100750.84;;;12.54;60.67
43621;BME280;29213;50.770;7.298;2023-05-21T06:58:20;100700.84;;;12.40;60.66
43621;BME280;29213;50.770;7.298;2023-05-21T07:00:46;100790.75;;;13.04;60.18
43621;BME280;29213;50.770;7.298;2023-05-21T07:03:11;100745.66;;;12.93;60.05
43621;BME280;29213;50.770;7.298;2023-05-21T07:05:37;100736.16;;;12.90;59.54
43621;BME280;29213;50.770;7.298;2023-05-21T07:08:02;100679.81;;;12.68;59.27
43621;BME280;29213;50.770;7.298;2023-05-21T07:10:27;100774.16;;;13.41;59.39
43621;BME280;29213;50.770;7.298;2023-05-21T07:12:53;100818.50;;;13.82;58.69
43621;BME280;29213;50.770;7.298;2023-05-21T07:15:18;100729.91;;;13.30;57.67
43621;BME280;29213;50.770;7.298;2023-05-21T07:17:43;100815.13;;;13.88;57.70
43621;BME280;29213;50.770;7.298;2023-05-21T07:20:09;100718.16;;;13.39;58.43
43621;BME280;29213;50.770;7.298;2023-05-21T07:22:38;100813.81;;;14.07;57.72
43621;BME280;29213;50.770;7.298;2023-05-21T07:25:05;100776.81;;;14.02;58.45
43621;BME280;29213;50.770;7.298;2023-05-21T07:27:30;100772.94;;;14.05;57.79
43621;BME280;29213;50.770;7.298;2023-05-21T07:29:56;100817.63;;;14.43;57.54
43621;BME280;29213;50.770;7.298;2023-05-21T07:32:21;100820.50;;;14.56;57.29
43621;BME280;29213;50.770;7.298;2023-05-21T07:34:47;100773.66;;;14.37;57.03
43621;BME280;29213;50.770;7.298;2023-05-21T07:37:12;100747.78;;;14.29;56.60
43621;BME280;29213;50.770;7.298;2023-05-21T07:39:38;100805.69;;;14.76;56.21
43621;BME280;29213;50.770;7.298;2023-05-21T07:42:04;100745.84;;;14.38;55.81
43621;BME280;29213;50.770;7.298;2023-05-21T07:44:30;100814.09;;;15.03;56.51
43621;BME280;29213;50.770;7.298;2023-05-21T07:46:56;100814.25;;;15.16;56.46
43621;BME280;29213;50.770;7.298;2023-05-21T07:49:22;100825.59;;;15.33;54.65
43621;BME280;29213;50.770;7.298;2023-05-21T07:51:47;100697.94;;;14.65;55.03
43621;BME280;29213;50.770;7.298;2023-05-21T07:54:13;100694.59;;;14.78;55.01
43621;BME280;29213;50.770;7.298;2023-05-21T07:56:38;100812.72;;;15.66;54.58
43621;BME280;29213;50.770;7.298;2023-05-21T07:59:03;100713.34;;;15.15;53.64
43621;BME280;29213;50.770;7.298;2023-05-21T08:01:29;100750.22;;;15.50;53.59
43621;BME280;29213;50.770;7.298;2023-05-21T08:03:55;100801.88;;;16.02;54.01
43621;BME280;29213;50.770;7.298;2023-05-21T08:06:20;100814.56;;;16.15;53.67
43621;BME280;29213;50.770;7.298;2023-05-21T08:08:48;100707.53;;;15.62;52.96
43621;BME280;29213;50.770;7.298;2023-05-21T08:11:14;100803.75;;;16.37;52.89
43621;BME280;29213;50.770;7.298;2023-05-21T08:13:40;100698.19;;;15.80;52.58
43621;BME280;29213;50.770;7.298;2023-05-21T08:16:05;100744.72;;;16.15;51.81
43621;BME280;29213;50.770;7.298;2023-05-21T08:18:30;100748.53;;;16.28;52.05
43621;BME280;29213;50.770;7.298;2023-05-21T08:20:56;100674.56;;;15.97;52.22
43621;BME280;29213;50.770;7.298;2023-05-21T08:23:21;100752.16;;;16.55;51.64
43621;BME280;29213;50.770;7.298;2023-05-21T08:25:47;100762.56;;;16.72;51.23
43621;BME280;29213;50.770;7.298;2023-05-21T08:28:12;100797.13;;;17.17;51.83
43621;BME280;29213;50.770;7.298;2023-05-21T08:30:37;100762.31;;;17.09;51.00
43621;BME280;29213;50.770;7.298;2023-05-21T08:33:03;100771.03;;;17.25;50.96
43621;BME280;29213;50.770;7.298;2023-05-21T08:35:28;100804.41;;;17.44;50.50
43621;BME280;29213;50.770;7.298;2023-05-21T08:37:54;100682.31;;;16.69;49.87
43621;BME280;29213;50.770;7.298;2023-05-21T08:40:19;100802.97;;;17.41;50.18
43621;BME280;29213;50.770;7.298;2023-05-21T08:42:46;100780.38;;;17.29;50.37
43621;BME280;29213;50.770;7.298;2023-05-21T08:45:13;100734.97;;;16.99;50.77
43621;BME280;29213;50.770;7.298;2023-05-21T08:47:41;100786.78;;;17.28;50.10
43621;BME280;29213;50.770;7.298;2023-05-21T08:50:08;100726.22;;;16.83;50.02
43621;BME280;29213;50.770;7.298;2023-05-21T08:52:34;100706.94;;;16.79;50.11
43621;BME280;29213;50.770;7.298;2023-05-21T08:55:02;100767.88;;;17.07;50.08
43621;BME280;29213;50.770;7.298;2023-05-21T08:57:29;100795.06;;;17.26;50.15
43621;BME280;29213;50.770;7.298;2023-05-21T08:59:54;100666.09;;;16.49;50.65
43621;BME280;29213;50.770;7.298;2023-05-21T09:02:20;100796.72;;;17.27;50.86
43621;BME280;29213;50.770;7.298;2023-05-21T09:04:46;100793.81;;;17.35;51.61
43621;BME280;29213;50.770;7.298;2023-05-21T09:07:14;100796.75;;;17.47;50.80
43621;BME280;29213;50.770;7.298;2023-05-21T09:10:06;100806.09;;;17.65;50.24
43621;BME280;29213;50.770;7.298;2023-05-21T09:12:35;100801.34;;;17.74;50.09
43621;BME280;29213;50.770;7.298;2023-05-21T09:15:00;100671.03;;;16.94;50.93
43621;BME280;29213;50.770;7.298;2023-05-21T09:17:26;100764.44;;;17.61;50.65
43621;BME280;29213;50.770;7.298;2023-05-21T09:22:36;100756.19;;;17.56;49.90
43621;BME280;29213;50.770;7.298;2023-05-21T09:25:04;100797.22;;;17.85;49.47
43621;BME280;29213;50.770;7.298;2023-05-21T09:27:31;100770.28;;;17.71;49.58
43621;BME280;29213;50.770;7.298;2023-05-21T09:29:56;100761.97;;;17.86;49.03
43621;BME280;29213;50.770;7.298;2023-05-21T09:32:22;100757.22;;;17.95;48.94
43621;BME280;29213;50.770;7.298;2023-05-21T09:34:47;100769.22;;;18.13;49.11
43621;BME280;29213;50.770;7.298;2023-05-21T09:37:12;100768.97;;;18.28;48.91
43621;BME280;29213;50.770;7.298;2023-05-21T09:39:39;100710.59;;;17.95;48.70
43621;BME280;29213;50.770;7.298;2023-05-21T09:42:06;100780.75;;;18.47;48.27
43621;BME280;29213;50.770;7.298;2023-05-21T09:44:33;100717.16;;;18.19;48.32
43621;BME280;29213;50.770;7.298;2023-05-21T09:46:59;100762.69;;;18.54;48.47
43621;BME280;29213;50.770;7.298;2023-05-21T09:49:26;100715.41;;;18.45;48.34
43621;BME280;29213;50.770;7.298;2023-05-21T09:51:58;100734.00;;;18.67;48.01
43621;BME280;29213;50.770;7.298;2023-05-21T09:54:24;100767.03;;;19.01;47.84
43621;BME280;29213;50.770;7.298;2023-05-21T09:56:54;100728.22;;;19.02;47.93
43621;BME280;29213;50.770;7.298;2023-05-21T09:59:20;100674.50;;;18.94;47.22
43621;BME280;29213;50.770;7.298;2023-05-21T10:01:49;100715.94;;;19.39;46.58
43621;BME280;29213;50.770;7.298;2023-05-21T10:04:16;100726.00;;;19.57;46.28
43621;BME280;29213;50.770;7.298;2023-05-21T10:06:42;100698.97;;;19.57;46.58
43621;BME280;29213;50.770;7.298;2023-05-21T10:09:13;100752.53;;;20.11;45.85
43621;BME280;29213;50.770;7.298;2023-05-21T10:11:43;100700.59;;;20.02;45.27
43621;BME280;29213;50.770;7.298;2023-05-21T10:14:14;100721.59;;;20.25;45.25
43621;BME280;29213;50.770;7.298;2023-05-21T10:16:41;100743.63;;;20.60;45.22
43621;BME280;29213;50.770;7.298;2023-05-21T10:19:06;100720.63;;;20.69;44.73
43621;BME280;29213;50.770;7.298;2023-05-21T10:21:35;100656.28;;;20.40;44.14
43621;BME280;29213;50.770;7.298;2023-05-21T10:24:01;100733.84;;;21.08;45.02
43621;BME280;29213;50.770;7.298;2023-05-21T10:26:28;100680.75;;;21.07;44.37
43621;BME280;29213;50.770;7.298;2023-05-21T10:28:55;100710.38;;;21.44;42.79
43621;BME280;29213;50.770;7.298;2023-05-21T10:31:22;100669.97;;;21.31;43.36
43621;BME280;29213;50.770;7.298;2023-05-21T10:33:47;100714.44;;;21.78;42.98
43621;BME280;29213;50.770;7.298;2023-05-21T10:36:15;100691.22;;;21.82;42.55
43621;BME280;29213;50.770;7.298;2023-05-21T10:38:42;100693.19;;;21.98;42.52
43621;BME280;29213;50.770;7.298;2023-05-21T10:41:08;100653.94;;;22.01;42.14
43621;BME280;29213;50.770;7.298;2023-05-21T10:43:45;100699.81;;;22.44;41.96
43621;BME280;29213;50.770;7.298;2023-05-21T10:51:51;100684.22;;;22.80;41.15
43621;BME280;29213;50.770;7.298;2023-05-21T11:00:00;100654.22;;;23.04;39.91
43621;BME280;29213;50.770;7.298;2023-05-21T11:02:26;100683.03;;;23.39;40.18
43621;BME280;29213;50.770;7.298;2023-05-21T11:04:59;100678.59;;;23.50;39.77
43621;BME280;29213;50.770;7.298;2023-05-21T11:07:51;100679.41;;;23.68;39.31
43621;BME280;29213;50.770;7.298;2023-05-21T11:10:53;100678.00;;;23.87;39.45
43621;BME280;29213;50.770;7.298;2023-05-21T11:13:19;100673.63;;;24.04;39.11
43621;BME280;29213;50.770;7.298;2023-05-21T11:21:15;100672.66;;;24.37;38.65
43621;BME280;29213;50.770;7.298;2023-05-21T11:26:20;100651.53;;;24.45;38.20
43621;BME280;29213;50.770;7.298;2023-05-21T11:29:09;100631.88;;;24.43;38.26
43621;BME280;29213;50.770;7.298;2023-05-21T11:31:35;100635.22;;;24.50;37.42
43621;BME280;29213;50.770;7.298;2023-05-21T11:36:36;100634.97;;;24.51;37.87
43621;BME280;29213;50.770;7.298;2023-05-21T11:39:09;100622.19;;;24.52;38.13
43621;BME280;29213;50.770;7.298;2023-05-21T11:41:59;100594.53;;;24.33;37.81
43621;BME280;29213;50.770;7.298;2023-05-21T11:44:39;100630.91;;;24.54;37.88
43621;BME280;29213;50.770;7.298;2023-05-21T11:47:09;100645.19;;;24.66;37.19
43621;BME280;29213;50.770;7.298;2023-05-21T11:49:35;100619.47;;;24.52;37.67
43621;BME280;29213;50.770;7.298;2023-05-21T11:52:05;100649.09;;;24.76;37.46
43621;BME280;29213;50.770;7.298;2023-05-21T11:54:32;100589.19;;;24.43;37.47
43621;BME280;29213;50.770;7.298;2023-05-21T11:57:02;100638.41;;;24.69;37.30
43621;BME280;29213;50.770;7.298;2023-05-21T11:59:27;100633.47;;;24.66;37.35
43621;BME280;29213;50.770;7.298;2023-05-21T12:01:53;100609.03;;;24.44;37.15
43621;BME280;29213;50.770;7.298;2023-05-21T12:04:19;100569.28;;;24.15;38.13
43621;BME280;29213;50.770;7.298;2023-05-21T12:06:44;100585.66;;;24.20;38.85
43621;BME280;29213;50.770;7.298;2023-05-21T12:09:10;100567.31;;;24.10;38.22
43621;BME280;29213;50.770;7.298;2023-05-21T12:11:40;100621.25;;;24.41;37.67
43621;BME280;29213;50.770;7.298;2023-05-21T12:14:12;100623.63;;;24.32;38.52
43621;BME280;29213;50.770;7.298;2023-05-21T12:16:38;100580.56;;;24.01;38.04
43621;BME280;29213;50.770;7.298;2023-05-21T12:19:04;100516.31;;;23.51;39.04
43621;BME280;29213;50.770;7.298;2023-05-21T12:21:30;100562.00;;;23.71;38.20
43621;BME280;29213;50.770;7.298;2023-05-21T12:23:56;100613.72;;;23.98;39.04
43621;BME280;29213;50.770;7.298;2023-05-21T12:26:23;100608.66;;;23.85;38.52
43621;BME280;29213;50.770;7.298;2023-05-21T12:28:55;100595.06;;;23.63;38.84
43621;BME280;29213;50.770;7.298;2023-05-21T12:31:21;100606.06;;;23.73;39.55
43621;BME280;29213;50.770;7.298;2023-05-21T12:33:52;100610.91;;;23.71;39.31
43621;BME280;29213;50.770;7.298;2023-05-21T12:36:29;100606.81;;;23.68;39.35
43621;BME280;29213;50.770;7.298;2023-05-21T12:38:58;100609.03;;;23.54;39.42
43621;BME280;29213;50.770;7.298;2023-05-21T12:41:23;100612.53;;;23.50;39.87
43621;BME280;29213;50.770;7.298;2023-05-21T12:43:50;100585.88;;;23.29;40.18
43621;BME280;29213;50.770;7.298;2023-05-21T12:46:16;100567.81;;;23.18;39.64
43621;BME280;29213;50.770;7.298;2023-05-21T12:48:52;100608.25;;;23.37;39.81
43621;BME280;29213;50.770;7.298;2023-05-21T12:51:19;100583.78;;;23.14;39.50
43621;BME280;29213;50.770;7.298;2023-05-21T12:53:45;100599.41;;;23.24;39.68
43621;BME280;29213;50.770;7.298;2023-05-21T12:56:12;100579.28;;;23.03;40.34
43621;BME280;29213;50.770;7.298;2023-05-21T12:58:38;100610.25;;;23.24;40.62
43621;BME280;29213;50.770;7.298;2023-05-21T13:01:10;100558.44;;;22.91;41.24
43621;BME280;29213;50.770;7.298;2023-05-21T13:03:37;100604.34;;;23.27;41.02
43621;BME280;29213;50.770;7.298;2023-05-21T13:06:07;100550.03;;;22.93;40.70
43621;BME280;29213;50.770;7.298;2023-05-21T13:08:33;100582.06;;;23.08;40.60
43621;BME280;29213;50.770;7.298;2023-05-21T13:11:02;100610.25;;;23.24;40.68
43621;BME280;29213;50.770;7.298;2023-05-21T13:13:28;100590.84;;;23.15;40.61
43621;BME280;29213;50.770;7.298;2023-05-21T13:15:54;100592.56;;;23.21;40.36